createdAt,value
2023-04-15T00:01:07.760Z,84.78
2023-04-15T00:03:34.522Z,84.14
2023-04-15T00:06:02.338Z,84.18
2023-04-15T00:08:30.054Z,86.14
2023-04-15T00:10:56.690Z,86.41
2023-04-15T00:13:23.546Z,84.77
2023-04-15T00:15:51.074Z,85.67
2023-04-15T00:18:18.610Z,86.46
2023-04-15T00:20:45.055Z,87.16
2023-04-15T00:23:12.604Z,87.60
2023-04-15T00:25:39.244Z,88.17
2023-04-15T00:28:06.220Z,87.66
2023-04-15T00:30:32.651Z,87.54
2023-04-15T00:32:59.405Z,87.17
2023-04-15T00:35:25.833Z,87.39
2023-04-15T00:37:52.554Z,87.41
2023-04-15T00:40:21.723Z,88.11
2023-04-15T00:42:48.646Z,87.89
2023-04-15T00:45:15.681Z,88.26
2023-04-15T00:47:43.807Z,87.96
2023-04-15T00:50:12.519Z,88.15
2023-04-15T00:52:40.918Z,87.80
2023-04-15T00:55:08.875Z,87.28
2023-04-15T00:57:36.403Z,87.97
2023-04-15T01:00:05.601Z,88.55
2023-04-15T01:02:33.458Z,88.06
2023-04-15T01:05:00.463Z,87.94
2023-04-15T01:07:27.047Z,87.11
2023-04-15T01:09:53.757Z,88.12
2023-04-15T01:12:21.119Z,88.11
2023-04-15T01:14:47.676Z,88.60
2023-04-15T01:17:14.468Z,88.80
2023-04-15T01:19:41.659Z,87.56
2023-04-15T01:22:10.038Z,87.90
2023-04-15T01:24:36.935Z,88.20
2023-04-15T01:27:05.224Z,87.08
2023-04-15T01:29:38.485Z,88.48
2023-04-15T01:32:05.647Z,89.21
2023-04-15T01:34:35.514Z,87.98
2023-04-15T01:37:02.746Z,88.12
2023-04-15T01:39:29.416Z,87.95
2023-04-15T01:41:57.213Z,89.62
2023-04-15T01:44:23.612Z,88.32
2023-04-15T01:46:50.196Z,87.79
2023-04-15T01:49:16.935Z,88.56
2023-04-15T01:51:43.734Z,88.66
2023-04-15T01:54:10.225Z,89.00
2023-04-15T01:56:36.853Z,89.25
2023-04-15T01:59:03.803Z,89.33
2023-04-15T02:01:30.408Z,88.91
2023-04-15T02:03:57.889Z,89.81
2023-04-15T02:06:24.639Z,88.75
2023-04-15T02:08:51.452Z,89.10
2023-04-15T02:11:19.659Z,89.05
2023-04-15T02:13:46.328Z,89.83
2023-04-15T02:16:17.735Z,89.16
2023-04-15T02:18:47.424Z,89.76
2023-04-15T02:21:14.588Z,89.31
2023-04-15T02:23:41.098Z,90.32
2023-04-15T02:26:08.123Z,89.39
2023-04-15T02:28:35.023Z,89.40
2023-04-15T02:31:09.479Z,89.64
2023-04-15T02:33:36.934Z,90.77
2023-04-15T02:36:03.980Z,89.92
2023-04-15T02:38:31.884Z,89.67
2023-04-15T02:40:58.361Z,90.80
2023-04-15T02:43:24.843Z,90.79
2023-04-15T02:45:52.160Z,91.70
2023-04-15T02:48:20.259Z,91.59
2023-04-15T02:50:48.315Z,92.07
2023-04-15T02:53:14.803Z,92.18
2023-04-15T02:55:42.784Z,91.70
2023-04-15T02:58:09.618Z,91.08
2023-04-15T03:00:36.176Z,90.90
2023-04-15T03:03:05.961Z,91.43
2023-04-15T03:05:32.873Z,91.58
2023-04-15T03:08:01.024Z,91.24
2023-04-15T03:10:27.752Z,91.75
2023-04-15T03:12:54.600Z,91.78
2023-04-15T03:15:21.253Z,90.83
2023-04-15T03:17:49.638Z,90.66
2023-04-15T03:20:17.163Z,91.71
2023-04-15T03:22:44.299Z,92.36
2023-04-15T03:25:10.775Z,92.37
2023-04-15T03:27:38.802Z,91.78
2023-04-15T03:30:07.564Z,92.96
2023-04-15T03:32:34.573Z,91.87
2023-04-15T03:35:01.525Z,91.75
2023-04-15T03:37:28.098Z,92.41
2023-04-15T03:39:54.735Z,92.78
2023-04-15T03:42:21.254Z,92.91
2023-04-15T03:44:47.768Z,93.95
2023-04-15T03:47:14.266Z,93.46
2023-04-15T03:49:41.373Z,93.15
2023-04-15T03:52:07.723Z,92.75
2023-04-15T03:54:34.355Z,92.63
2023-04-15T03:57:01.399Z,93.64
2023-04-15T03:59:28.372Z,92.61
2023-04-15T04:01:54.934Z,93.80
2023-04-15T04:04:21.676Z,93.21
2023-04-15T04:06:48.141Z,92.58
2023-04-15T04:09:14.995Z,92.71
2023-04-15T04:11:41.770Z,94.15
2023-04-15T04:14:08.291Z,93.50
2023-04-15T04:16:35.086Z,93.05
2023-04-15T04:19:01.997Z,92.95
2023-04-15T04:21:29.142Z,93.87
2023-04-15T04:23:56.665Z,94.03
2023-04-15T04:26:23.107Z,94.50
2023-04-15T04:28:49.500Z,94.72
2023-04-15T04:31:16.095Z,94.66
2023-04-15T04:33:43.501Z,93.69
2023-04-15T04:36:10.525Z,93.56
2023-04-15T04:38:37.636Z,93.38
2023-04-15T04:41:04.225Z,93.36
2023-04-15T04:43:31.000Z,94.27
2023-04-15T04:45:57.596Z,94.45
2023-04-15T04:48:24.360Z,93.72
2023-04-15T04:50:51.356Z,93.75
2023-04-15T04:53:18.162Z,93.53
2023-04-15T04:55:44.720Z,94.22
2023-04-15T04:58:11.592Z,92.60
2023-04-15T05:00:38.453Z,92.67
2023-04-15T05:03:05.684Z,92.87
2023-04-15T05:05:32.332Z,93.34
2023-04-15T05:07:59.350Z,92.79
2023-04-15T05:10:26.217Z,92.88
2023-04-15T05:12:53.049Z,92.48
2023-04-15T05:15:19.965Z,92.01
2023-04-15T05:17:46.594Z,92.49
2023-04-15T05:20:14.317Z,91.56
2023-04-15T05:22:41.594Z,90.16
2023-04-15T05:25:09.274Z,90.82
2023-04-15T05:27:36.676Z,90.76
2023-04-15T05:30:03.588Z,90.43
2023-04-15T05:32:30.005Z,90.79
2023-04-15T05:34:56.771Z,90.18
2023-04-15T05:37:24.937Z,90.61
2023-04-15T05:39:52.019Z,89.98
2023-04-15T05:42:18.367Z,89.65
2023-04-15T05:44:45.650Z,88.81
2023-04-15T05:47:14.199Z,88.15
2023-04-15T05:49:41.274Z,87.56
2023-04-15T05:52:08.224Z,85.17
2023-04-15T05:54:35.141Z,85.56
2023-04-15T05:57:01.711Z,86.10
2023-04-15T05:59:28.612Z,85.61
2023-04-15T06:01:55.360Z,84.49
2023-04-15T06:04:22.826Z,83.90
2023-04-15T06:06:50.210Z,84.42
2023-04-15T06:09:17.707Z,84.08
2023-04-15T06:11:44.281Z,84.01
2023-04-15T06:14:11.159Z,83.36
2023-04-15T06:16:37.864Z,82.58
2023-04-15T06:19:05.083Z,82.80
2023-04-15T06:21:31.854Z,83.06
2023-04-15T06:23:59.912Z,82.93
2023-04-15T06:26:26.572Z,83.01
2023-04-15T06:28:53.255Z,82.43
2023-04-15T06:31:19.685Z,81.68
2023-04-15T06:33:46.602Z,80.27
2023-04-15T06:36:13.615Z,80.26
2023-04-15T06:38:40.128Z,78.99
2023-04-15T06:41:06.765Z,77.35
2023-04-15T06:43:33.309Z,76.40
2023-04-15T06:45:59.915Z,74.91
2023-04-15T06:48:27.544Z,74.16
2023-04-15T06:50:54.950Z,73.65
2023-04-15T06:53:22.083Z,74.11
2023-04-15T06:55:49.539Z,72.04
2023-04-15T06:58:16.218Z,71.59
2023-04-15T07:00:42.892Z,70.40
2023-04-15T07:03:11.161Z,71.78
2023-04-15T07:05:38.460Z,72.06
2023-04-15T07:08:05.386Z,73.50
2023-04-15T07:10:32.589Z,72.91
2023-04-15T07:12:59.653Z,73.72
2023-04-15T07:15:26.099Z,72.98
2023-04-15T07:17:54.357Z,72.96
2023-04-15T07:20:21.976Z,72.73
2023-04-15T07:22:48.911Z,71.98
2023-04-15T07:25:15.804Z,71.81
2023-04-15T07:27:42.454Z,71.25
2023-04-15T07:30:09.807Z,69.96
2023-04-15T07:32:36.972Z,68.50
2023-04-15T07:35:04.258Z,67.38
2023-04-15T07:37:30.786Z,66.17
2023-04-15T07:39:58.858Z,67.12
2023-04-15T07:42:25.525Z,67.89
2023-04-15T07:44:52.013Z,66.29
2023-04-15T07:47:18.826Z,66.86
2023-04-15T07:49:46.295Z,67.05
2023-04-15T07:52:12.950Z,66.61
2023-04-15T07:54:39.793Z,65.56
2023-04-15T07:57:06.540Z,65.06
2023-04-15T07:59:33.546Z,64.57
2023-04-15T08:02:01.690Z,61.53
2023-04-15T08:04:28.660Z,61.18
2023-04-15T08:06:55.306Z,61.61
2023-04-15T08:09:21.965Z,59.62
2023-04-15T08:11:50.700Z,62.72
2023-04-15T08:14:18.017Z,61.10
2023-04-15T08:16:44.556Z,59.57
2023-04-15T08:19:11.298Z,59.71
2023-04-15T08:21:38.598Z,58.78
2023-04-15T08:24:05.804Z,58.67
2023-04-15T08:26:32.589Z,58.73
2023-04-15T08:28:59.463Z,59.48
2023-04-15T08:31:28.939Z,59.44
2023-04-15T08:33:57.607Z,57.54
2023-04-15T08:36:24.110Z,56.36
2023-04-15T08:38:51.155Z,56.21
2023-04-15T08:41:25.674Z,55.86
2023-04-15T08:44:01.974Z,54.79
2023-04-15T08:46:31.971Z,54.01
2023-04-15T08:48:59.148Z,55.94
2023-04-15T08:51:27.225Z,58.01
2023-04-15T08:53:54.819Z,58.81
2023-04-15T08:56:26.697Z,59.49
2023-04-15T08:58:53.923Z,57.97
2023-04-15T09:01:20.984Z,57.01
2023-04-15T09:03:50.293Z,56.77
2023-04-15T09:06:18.141Z,57.84
2023-04-15T09:08:45.741Z,58.32
2023-04-15T09:11:12.490Z,58.00
2023-04-15T09:13:39.839Z,58.21
2023-04-15T09:16:08.091Z,58.91
2023-04-15T09:18:36.281Z,56.78
2023-04-15T09:21:08.793Z,54.93
2023-04-15T09:23:36.150Z,54.22
2023-04-15T09:26:03.704Z,54.94
2023-04-15T09:28:31.104Z,55.25
2023-04-15T09:30:59.339Z,52.27
2023-04-15T09:33:28.041Z,53.34
2023-04-15T09:35:59.290Z,51.73
2023-04-15T09:38:26.157Z,49.94
2023-04-15T09:40:55.852Z,46.55
2023-04-15T09:43:22.909Z,43.77
2023-04-15T09:45:52.368Z,43.94
2023-04-15T09:48:28.931Z,44.13
2023-04-15T09:50:58.985Z,45.01
2023-04-15T09:53:29.834Z,45.70
2023-04-15T09:56:02.838Z,42.82
2023-04-15T09:58:31.867Z,42.17
2023-04-15T10:01:00.114Z,42.68
2023-04-15T10:03:30.125Z,44.56
2023-04-15T10:05:59.306Z,38.90
2023-04-15T10:08:33.608Z,37.81
2023-04-15T10:11:02.520Z,35.59
2023-04-15T10:13:36.974Z,32.55
2023-04-15T10:16:16.893Z,36.93
2023-04-15T10:18:46.157Z,36.38
2023-04-15T10:21:18.510Z,33.76
2023-04-15T10:23:46.006Z,33.88
2023-04-15T10:26:14.741Z,32.78
2023-04-15T10:28:42.088Z,34.23
2023-04-15T10:31:11.689Z,37.60
2023-04-15T10:33:39.780Z,34.83
2023-04-15T10:36:07.927Z,34.44
2023-04-15T10:38:45.941Z,31.92
2023-04-15T10:41:27.954Z,33.45
2023-04-15T10:43:57.719Z,36.01
2023-04-15T10:46:36.971Z,35.94
2023-04-15T10:49:15.120Z,37.00
2023-04-15T10:51:47.292Z,37.93
2023-04-15T10:54:18.520Z,36.53
2023-04-15T10:56:46.007Z,38.19
2023-04-15T10:59:12.604Z,38.07
2023-04-15T11:01:57.403Z,37.97
2023-04-15T11:04:43.153Z,36.54
2023-04-15T11:07:10.910Z,38.88
2023-04-15T11:09:37.520Z,38.35
2023-04-15T11:12:10.550Z,40.56
2023-04-15T11:14:41.943Z,42.75
2023-04-15T11:17:09.664Z,43.23
2023-04-15T11:19:39.462Z,44.98
2023-04-15T11:22:10.166Z,45.36
2023-04-15T11:24:37.104Z,45.79
2023-04-15T11:27:03.796Z,46.86
2023-04-15T11:29:32.133Z,46.65
2023-04-15T11:32:06.298Z,47.29
2023-04-15T11:34:34.996Z,50.35
2023-04-15T11:37:06.701Z,49.13
2023-04-15T11:39:33.610Z,52.05
2023-04-15T11:42:01.797Z,50.20
2023-04-15T11:44:28.515Z,50.29
2023-04-15T11:46:56.593Z,51.53
2023-04-15T11:49:31.218Z,51.64
2023-04-15T11:51:58.008Z,53.64
2023-04-15T11:54:25.084Z,52.44
2023-04-15T11:56:52.470Z,52.54
2023-04-15T11:59:18.970Z,53.59
2023-04-15T12:01:47.640Z,53.52
2023-04-15T12:04:18.330Z,55.94
2023-04-15T12:06:46.152Z,55.81
2023-04-15T12:09:14.318Z,55.91
2023-04-15T12:11:51.313Z,54.61
2023-04-15T12:14:31.223Z,55.65
2023-04-15T12:17:00.546Z,55.29
2023-04-15T12:19:43.019Z,55.47
2023-04-15T12:22:11.711Z,56.37
2023-04-15T12:24:39.434Z,56.83
2023-04-15T12:27:12.424Z,56.64
2023-04-15T12:29:40.547Z,57.35
2023-04-15T12:32:08.521Z,57.66
2023-04-15T12:34:39.173Z,59.35
2023-04-15T12:37:09.406Z,59.18
2023-04-15T12:39:38.027Z,58.59
2023-04-15T12:42:06.069Z,60.26
2023-04-15T12:44:33.478Z,60.39
2023-04-15T12:47:00.472Z,60.91
2023-04-15T12:49:28.374Z,60.90
2023-04-15T12:51:57.822Z,60.20
2023-04-15T12:54:24.354Z,60.61
2023-04-15T12:56:51.597Z,59.87
2023-04-15T12:59:19.968Z,61.44
2023-04-15T13:01:48.799Z,61.77
2023-04-15T13:04:17.043Z,61.80
2023-04-15T13:06:44.040Z,61.82
2023-04-15T13:09:10.771Z,62.00
2023-04-15T13:11:37.560Z,62.13
2023-04-15T13:14:06.376Z,62.09
2023-04-15T13:16:34.831Z,63.18
2023-04-15T13:19:02.629Z,63.61
2023-04-15T13:21:29.325Z,64.11
2023-04-15T13:23:57.240Z,62.92
2023-04-15T13:26:24.070Z,62.95
2023-04-15T13:28:51.149Z,63.67
2023-04-15T13:31:18.327Z,63.66
2023-04-15T13:33:45.478Z,63.33
2023-04-15T13:36:12.266Z,63.86
2023-04-15T13:38:38.841Z,63.75
2023-04-15T13:41:05.531Z,62.97
2023-04-15T13:43:34.216Z,62.76
2023-04-15T13:46:01.795Z,63.58
2023-04-15T13:48:28.839Z,62.84
2023-04-15T13:50:55.732Z,63.93
2023-04-15T13:53:33.964Z,65.88
2023-04-15T13:56:08.855Z,66.66
2023-04-15T13:58:38.116Z,66.44
2023-04-15T14:01:06.772Z,67.09
2023-04-15T14:03:37.623Z,67.35
2023-04-15T14:06:06.039Z,67.70
2023-04-15T14:08:33.322Z,67.57
2023-04-15T14:10:59.997Z,68.61
2023-04-15T14:13:26.768Z,69.60
2023-04-15T14:15:53.392Z,70.03
2023-04-15T14:18:20.583Z,70.09
2023-04-15T14:20:49.151Z,70.50
2023-04-15T14:23:16.626Z,71.86
2023-04-15T14:25:44.183Z,71.16
2023-04-15T14:28:12.401Z,71.11
2023-04-15T14:30:39.493Z,69.34
2023-04-15T14:33:06.146Z,69.69
2023-04-15T14:35:33.236Z,68.35
2023-04-15T14:37:59.900Z,68.78
2023-04-15T14:40:26.698Z,69.51
2023-04-15T14:42:53.675Z,70.13
2023-04-15T14:45:20.425Z,72.03
2023-04-15T14:47:47.516Z,72.24
2023-04-15T14:50:14.496Z,74.66
2023-04-15T14:52:41.671Z,76.16
2023-04-15T14:55:12.529Z,76.58
2023-04-15T14:57:40.435Z,77.22
2023-04-15T15:00:10.024Z,76.92
2023-04-15T15:02:40.481Z,76.83
2023-04-15T15:05:09.708Z,76.78
2023-04-15T15:07:37.988Z,76.31
2023-04-15T15:10:06.022Z,77.27
2023-04-15T15:12:33.634Z,75.64
2023-04-15T15:15:01.599Z,76.51
2023-04-15T15:17:29.886Z,76.02
2023-04-15T15:19:56.603Z,76.61
2023-04-15T15:22:24.567Z,77.19
2023-04-15T15:24:51.208Z,77.22
2023-04-15T15:27:18.068Z,76.95
2023-04-15T15:29:44.718Z,77.95
2023-04-15T15:32:11.355Z,77.99
2023-04-15T15:34:38.020Z,77.86
2023-04-15T15:37:04.663Z,77.93
2023-04-15T15:39:31.252Z,77.96
2023-04-15T15:41:57.811Z,77.94
2023-04-15T15:44:24.713Z,80.21
2023-04-15T15:46:51.308Z,80.65
2023-04-15T15:49:18.227Z,81.21
2023-04-15T15:51:45.773Z,80.67
2023-04-15T15:54:12.497Z,81.64
2023-04-15T15:56:39.527Z,81.14
2023-04-15T15:59:06.700Z,82.48
2023-04-15T16:01:33.642Z,82.85
2023-04-15T16:04:00.819Z,82.83
2023-04-15T16:06:28.110Z,84.03
2023-04-15T16:08:54.871Z,84.58
2023-04-15T16:11:21.347Z,84.95
2023-04-15T16:13:48.440Z,83.59
2023-04-15T16:16:15.206Z,84.04
2023-04-15T16:18:42.445Z,83.05
2023-04-15T16:21:09.036Z,83.82
2023-04-15T16:23:36.784Z,83.22
2023-04-15T16:26:04.909Z,83.52
2023-04-15T16:28:31.803Z,83.93
2023-04-15T16:30:58.667Z,83.27
2023-04-15T16:33:25.456Z,84.78
2023-04-15T16:35:53.414Z,85.00
2023-04-15T16:38:20.758Z,86.02
2023-04-15T16:40:47.402Z,86.03
2023-04-15T16:43:15.931Z,85.39
2023-04-15T16:45:44.433Z,85.77
2023-04-15T16:48:10.970Z,85.34
2023-04-15T16:50:37.711Z,86.40
2023-04-15T16:53:04.739Z,87.12
2023-04-15T16:55:31.280Z,86.88
2023-04-15T16:58:02.473Z,87.23
2023-04-15T17:00:31.370Z,85.83
2023-04-15T17:03:00.071Z,86.47
2023-04-15T17:05:27.556Z,86.88
2023-04-15T17:07:54.699Z,87.56
2023-04-15T17:10:21.217Z,87.49
2023-04-15T17:12:48.167Z,86.83
2023-04-15T17:15:14.744Z,86.97
2023-04-15T17:17:41.657Z,85.28
2023-04-15T17:20:09.443Z,86.42
2023-04-15T17:22:36.512Z,85.63
2023-04-15T17:25:04.569Z,86.03
2023-04-15T17:27:31.246Z,83.80
2023-04-15T17:29:58.013Z,85.21
2023-04-15T17:32:26.398Z,84.21
2023-04-15T17:34:53.014Z,85.34
2023-04-15T17:37:19.541Z,85.02
2023-04-15T17:39:46.441Z,85.03
2023-04-15T17:42:13.647Z,85.27
2023-04-15T17:44:40.154Z,85.93
2023-04-15T17:47:07.965Z,86.76
2023-04-15T17:49:37.628Z,86.56
2023-04-15T17:52:04.608Z,85.99
2023-04-15T17:54:31.136Z,87.26
2023-04-15T17:56:59.234Z,87.79
2023-04-15T17:59:27.565Z,88.41
2023-04-15T18:01:55.707Z,87.95
2023-04-15T18:04:26.355Z,88.08
2023-04-15T18:06:53.568Z,89.46
2023-04-15T18:09:21.625Z,88.67
2023-04-15T18:11:49.415Z,89.02
2023-04-15T18:14:27.058Z,88.74
2023-04-15T18:17:00.720Z,89.58
2023-04-15T18:19:27.705Z,89.54
2023-04-15T18:21:55.061Z,90.07
2023-04-15T18:24:22.548Z,89.92
2023-04-15T18:26:49.565Z,90.47
2023-04-15T18:29:18.186Z,89.55
2023-04-15T18:31:45.234Z,89.28
2023-04-15T18:34:11.870Z,89.12
2023-04-15T18:36:38.949Z,89.17
2023-04-15T18:39:05.713Z,88.56
2023-04-15T18:41:32.289Z,87.71
2023-04-15T18:43:58.971Z,88.89
2023-04-15T18:46:25.799Z,89.16
2023-04-15T18:48:52.809Z,89.65
2023-04-15T18:51:19.643Z,89.25
2023-04-15T18:53:46.470Z,89.08
2023-04-15T18:56:13.520Z,88.80
2023-04-15T18:59:19.001Z,89.53
2023-04-15T19:01:26.775Z,90.20
2023-04-15T19:03:53.551Z,91.28
2023-04-15T19:06:22.275Z,92.58
2023-04-15T19:08:49.365Z,93.61
2023-04-15T19:11:16.051Z,93.46
2023-04-15T19:13:43.380Z,94.09
2023-04-15T19:16:10.123Z,94.33
2023-04-15T19:18:36.829Z,94.98
2023-04-15T19:21:03.988Z,94.67
2023-04-15T19:23:31.779Z,95.23
2023-04-15T19:25:59.135Z,95.28
2023-04-15T19:28:28.068Z,96.38
2023-04-15T19:30:55.061Z,96.89
2023-04-15T19:33:21.986Z,97.49
2023-04-15T19:35:50.127Z,97.92
2023-04-15T19:38:17.216Z,97.14
2023-04-15T19:40:44.129Z,97.52
2023-04-15T19:43:10.814Z,97.57
2023-04-15T19:45:37.572Z,97.17
2023-04-15T19:48:06.086Z,97.95
2023-04-15T19:50:32.768Z,97.69
2023-04-15T19:52:59.595Z,97.79
2023-04-15T19:55:26.335Z,97.27
2023-04-15T19:57:53.140Z,96.80
2023-04-15T20:00:20.027Z,97.02
2023-04-15T20:02:46.650Z,95.55
2023-04-15T20:05:14.098Z,94.99
2023-04-15T20:07:42.475Z,95.24
2023-04-15T20:10:13.051Z,95.93
2023-04-15T20:12:51.301Z,95.45
2023-04-15T20:15:21.438Z,95.58
2023-04-15T20:17:48.013Z,95.45
2023-04-15T20:20:16.173Z,96.08
2023-04-15T20:22:43.220Z,96.60
2023-04-15T20:25:10.402Z,96.97
2023-04-15T20:27:37.206Z,96.46
2023-04-15T20:30:05.062Z,96.85
2023-04-15T20:32:35.244Z,96.41
2023-04-15T20:35:03.775Z,96.30
2023-04-15T20:37:33.245Z,95.62
2023-04-15T20:40:00.697Z,95.28
2023-04-15T20:42:28.014Z,95.42
2023-04-15T20:44:54.578Z,95.77
2023-04-15T20:47:21.274Z,96.09
2023-04-15T20:49:48.321Z,96.39
2023-04-15T20:52:15.049Z,97.08
2023-04-15T20:54:42.074Z,96.61
2023-04-15T20:57:08.976Z,97.47
2023-04-15T20:59:36.019Z,96.93
2023-04-15T21:02:02.732Z,97.01
2023-04-15T21:04:29.979Z,97.39
2023-04-15T21:06:56.765Z,97.70
2023-04-15T21:09:24.338Z,97.84
2023-04-15T21:14:22.613Z,97.17
2023-04-15T21:16:49.183Z,97.78
2023-04-15T21:19:15.981Z,96.95
2023-04-15T21:21:43.252Z,97.53
2023-04-15T21:24:11.752Z,98.17
2023-04-15T21:26:38.456Z,97.40
2023-04-15T21:29:06.598Z,97.40
2023-04-15T21:31:35.657Z,97.07
2023-04-15T21:34:02.194Z,96.78
2023-04-15T21:36:28.851Z,96.88
2023-04-15T21:38:55.985Z,97.14
2023-04-15T21:41:23.438Z,97.23
2023-04-15T21:43:50.267Z,97.27
2023-04-15T21:46:21.985Z,97.48
2023-04-15T21:48:51.468Z,97.45
2023-04-15T21:51:18.466Z,96.89
2023-04-15T21:53:46.584Z,97.42
2023-04-15T21:56:14.199Z,97.12
2023-04-15T21:58:40.841Z,96.77
2023-04-15T22:01:07.995Z,95.93
2023-04-15T22:03:37.400Z,96.89
2023-04-15T22:06:05.383Z,96.84
2023-04-15T22:08:38.668Z,97.02
2023-04-15T22:11:09.110Z,96.85
2023-04-15T22:13:39.106Z,97.09
2023-04-15T22:16:07.063Z,96.90
2023-04-15T22:18:34.705Z,97.44
2023-04-15T22:21:02.110Z,97.51
2023-04-15T22:23:28.861Z,97.66
2023-04-15T22:25:55.589Z,97.05
2023-04-15T22:28:22.203Z,96.89
2023-04-15T22:30:48.776Z,96.80
2023-04-15T22:33:15.504Z,96.55
2023-04-15T22:35:42.073Z,96.95
2023-04-15T22:38:08.663Z,97.65
2023-04-15T22:40:35.338Z,97.08
2023-04-15T22:43:02.160Z,97.46
2023-04-15T22:45:29.472Z,97.30
2023-04-15T22:47:56.367Z,97.43
2023-04-15T22:50:23.131Z,97.43
2023-04-15T22:52:49.912Z,97.68
2023-04-15T22:55:17.169Z,97.83
2023-04-15T22:57:44.422Z,97.50
2023-04-15T23:00:11.389Z,97.58
2023-04-15T23:02:38.474Z,97.62
2023-04-15T23:05:11.407Z,98.01
2023-04-15T23:07:40.108Z,98.67
2023-04-15T23:10:08.683Z,98.42
2023-04-15T23:12:35.527Z,98.53
2023-04-15T23:15:03.432Z,98.45
2023-04-15T23:17:30.699Z,98.32
2023-04-15T23:19:57.285Z,98.59
2023-04-15T23:22:24.858Z,98.12
2023-04-15T23:24:51.465Z,99.06
2023-04-15T23:27:19.068Z,98.58
2023-04-15T23:29:46.012Z,98.91
2023-04-15T23:32:12.666Z,99.13
2023-04-15T23:34:39.228Z,99.19
2023-04-15T23:37:05.846Z,99.29
2023-04-15T23:39:32.475Z,99.92
2023-04-15T23:41:59.604Z,99.91
2023-04-15T23:44:27.596Z,99.90
2023-04-15T23:46:54.109Z,99.85
2023-04-15T23:49:20.803Z,100.00
2023-04-15T23:51:47.575Z,100.00
2023-04-15T23:54:14.842Z,100.00
2023-04-15T23:56:41.385Z,100.00
2023-04-15T23:59:09.231Z,100.00
